Wetterdaten: Woche 08.02.10 - 14.02.10 (KW6)
Datum Zeit Temp. A. Feuchte A. Luftdruck Regen Wind Richtung Taupunkt Windchill Windben
08.02.2010 00:00 -2,7 C 93 % 1012,5 hPa 0,0 l/m 0,0 km/h N-NO -3,7 C -2,7 C 0,0 km/h
08.02.2010 01:00 -3,3 C 93 % 1011,9 hPa 0,0 l/m 1,1 km/h NO -4,3 C -3,3 C 1,1 km/h
08.02.2010 02:00 -3,6 C 93 % 1011,2 hPa 0,0 l/m 0,0 km/h NO -4,6 C -3,6 C 0,0 km/h
08.02.2010 03:00 -3,6 C 93 % 1010,4 hPa 0,0 l/m 0,0 km/h NO -4,6 C -3,6 C 0,0 km/h
08.02.2010 04:00 -4,1 C 93 % 1010,3 hPa 0,0 l/m 0,0 km/h NO -5,1 C -4,1 C 0,0 km/h
08.02.2010 05:00 -4,2 C 93 % 1010,0 hPa 0,0 l/m 0,0 km/h NO -5,2 C -4,2 C 0,0 km/h
08.02.2010 06:00 -4,2 C 93 % 1009,2 hPa 0,0 l/m 0,0 km/h NO -5,2 C -4,2 C 0,0 km/h
08.02.2010 07:00 -4,5 C 93 % 1008,5 hPa 0,0 l/m 0,0 km/h NO -5,5 C -4,5 C 0,0 km/h
08.02.2010 08:00 -2,2 C 94 % 1008,1 hPa 0,0 l/m 0,0 km/h NO -3,0 C -2,2 C 0,0 km/h
08.02.2010 09:00 1,9 C 87 % 1007,4 hPa 0,0 l/m 0,0 km/h NO -0,0 C 1,9 C 0,0 km/h
08.02.2010 10:00 -0,1 C 88 % 1007,0 hPa 0,0 l/m 0,0 km/h NO -1,8 C -0,1 C 0,0 km/h
08.02.2010 11:00 -0,2 C 90 % 1006,5 hPa 0,0 l/m 0,0 km/h S -1,6 C -0,2 C 0,0 km/h
08.02.2010 12:00 3,2 C 87 % 1005,5 hPa 0,0 l/m 0,0 km/h SW 1,2 C 3,2 C 0,0 km/h
08.02.2010 13:00 5,1 C 77 % 1004,8 hPa 0,0 l/m 0,0 km/h W 1,4 C 5,1 C 0,0 km/h
08.02.2010 14:00 8,1 C 67 % 1003,8 hPa 0,0 l/m 2,2 km/h S-SW 2,3 C 8,1 C 2,2 km/h
08.02.2010 15:00 6,9 C 64 % 1003,3 hPa 0,0 l/m 1,1 km/h W-SW 0,6 C 6,9 C 1,1 km/h
08.02.2010 16:00 2,6 C 75 % 1002,9 hPa 0,0 l/m 0,0 km/h S -1,4 C 2,6 C 0,0 km/h
08.02.2010 17:00 -0,4 C 84 % 1002,8 hPa 0,0 l/m 0,0 km/h SO -2,8 C -0,4 C 0,0 km/h
08.02.2010 18:00 -1,5 C 87 % 1002,6 hPa 0,0 l/m 0,0 km/h W -3,4 C -1,5 C 0,0 km/h
08.02.2010 19:00 -2,9 C 89 % 1002,7 hPa 0,0 l/m 0,0 km/h O-SO -4,5 C -2,9 C 0,0 km/h
08.02.2010 20:00 -2,4 C 91 % 1002,1 hPa 0,0 l/m 0,0 km/h W-SW -3,7 C -2,4 C 0,0 km/h
08.02.2010 21:00 -1,7 C 92 % 1001,8 hPa 0,0 l/m 0,0 km/h W -2,8 C -1,7 C 0,0 km/h
08.02.2010 22:00 -1,6 C 92 % 1001,8 hPa 0,0 l/m 0,0 km/h W -2,7 C -1,6 C 0,0 km/h
08.02.2010 23:00 -1,2 C 92 % 1001,5 hPa 0,0 l/m 0,0 km/h W -2,3 C -1,2 C 0,0 km/h
09.02.2010 00:00 -1,4 C 92 % 1001,5 hPa 0,0 l/m 0,0 km/h W-SW -2,5 C -1,4 C 0,0 km/h
09.02.2010 01:00 -1,3 C 92 % 1001,2 hPa 0,0 l/m 0,0 km/h W -2,4 C -1,3 C 0,0 km/h
09.02.2010 02:00 -1,6 C 92 % 1001,4 hPa 0,0 l/m 0,0 km/h W-SW -2,7 C -1,6 C 0,0 km/h
09.02.2010 03:00 -1,6 C 92 % 1001,1 hPa 0,0 l/m 0,0 km/h W-SW -2,7 C -1,6 C 0,0 km/h
09.02.2010 04:00 -1,6 C 92 % 1000,7 hPa 0,0 l/m 0,0 km/h W-SW -2,7 C -1,6 C 0,0 km/h
09.02.2010 05:00 -1,5 C 92 % 1000,6 hPa 0,0 l/m 0,0 km/h W-SW -2,6 C -1,5 C 0,0 km/h
09.02.2010 06:00 -1,5 C 92 % 1000,5 hPa 0,0 l/m 0,0 km/h W-SW -2,6 C -1,5 C 0,0 km/h
09.02.2010 07:00 -1,6 C 92 % 1000,5 hPa 0,0 l/m 0,0 km/h W-SW -2,7 C -1,6 C 0,0 km/h
09.02.2010 08:00 -0,1 C 93 % 1000,4 hPa 0,0 l/m 0,0 km/h W-SW -1,1 C -0,1 C 0,0 km/h
09.02.2010 09:00 2,9 C 87 % 1000,2 hPa 0,0 l/m 0,0 km/h W-NW 1,0 C 2,9 C 0,0 km/h
09.02.2010 10:00 3,9 C 74 % 1000,6 hPa 0,0 l/m 1,1 km/h W -0,3 C 3,9 C 1,1 km/h
09.02.2010 11:00 3,1 C 75 % 1000,8 hPa 0,0 l/m 0,0 km/h SW -0,9 C 3,1 C 0,0 km/h
09.02.2010 12:00 3,5 C 75 % 1000,0 hPa 0,0 l/m 0,0 km/h NW -0,5 C 3,5 C 0,0 km/h
09.02.2010 13:00 3,4 C 73 % 1000,0 hPa 0,0 l/m 4,0 km/h W -1,0 C 3,4 C 4,0 km/h
09.02.2010 14:00 3,2 C 77 % 999,7 hPa 0,0 l/m 2,5 km/h W-NW -0,4 C 3,2 C 2,5 km/h
09.02.2010 15:00 1,9 C 79 % 999,6 hPa 0,0 l/m 1,1 km/h N-NW -1,3 C 1,9 C 1,1 km/h
09.02.2010 16:00 1,1 C 81 % 999,7 hPa 0,0 l/m 0,0 km/h NW -1,8 C 1,1 C 0,0 km/h
09.02.2010 17:00 0,4 C 83 % 1000,0 hPa 0,0 l/m 0,0 km/h NW -2,1 C 0,4 C 0,0 km/h
09.02.2010 18:00 -0,2 C 84 % 1000,5 hPa 0,0 l/m 1,1 km/h W-NW -2,6 C -0,2 C 1,1 km/h
09.02.2010 19:00 -0,6 C 85 % 1000,9 hPa 0,0 l/m 0,0 km/h W-NW -2,8 C -0,6 C 0,0 km/h
09.02.2010 20:00 -1,1 C 87 % 1001,4 hPa 0,0 l/m 0,0 km/h W-NW -3,0 C -1,1 C 0,0 km/h
09.02.2010 21:00 -1,8 C 89 % 1001,8 hPa 0,0 l/m 0,0 km/h W-NW -3,4 C -1,8 C 0,0 km/h
09.02.2010 22:00 -2,2 C 91 % 1002,2 hPa 0,0 l/m 0,0 km/h W-NW -3,5 C -2,2 C 0,0 km/h
09.02.2010 23:00 -2,8 C 91 % 1002,5 hPa 0,0 l/m 0,0 km/h W-NW -4,1 C -2,8 C 0,0 km/h
10.02.2010 00:00 -3,1 C 91 % 1003,0 hPa 0,0 l/m 0,0 km/h W-NW -4,4 C -3,1 C 0,0 km/h
10.02.2010 01:00 -3,6 C 91 % 1003,0 hPa 0,0 l/m 0,0 km/h W-NW -4,8 C -3,6 C 0,0 km/h
10.02.2010 02:00 -4,0 C 91 % 1003,4 hPa 0,0 l/m 0,0 km/h W-NW -5,2 C -4,0 C 0,0 km/h
10.02.2010 03:00 -4,2 C 91 % 1003,3 hPa 0,0 l/m 0,0 km/h W-NW -5,4 C -4,2 C 0,0 km/h
10.02.2010 04:00 -4,6 C 91 % 1003,5 hPa 0,0 l/m 0,0 km/h W-NW -5,8 C -4,6 C 0,0 km/h
10.02.2010 05:00 -4,9 C 90 % 1004,1 hPa 0,0 l/m 0,0 km/h W-NW -6,3 C -4,9 C 0,0 km/h
10.02.2010 06:00 -5,2 C 90 % 1004,4 hPa 0,0 l/m 0,0 km/h W-NW -6,6 C -5,2 C 0,0 km/h
10.02.2010 07:00 -5,1 C 87 % 1005,2 hPa 0,0 l/m 0,0 km/h W-NW -6,9 C -5,1 C 0,0 km/h
10.02.2010 08:00 -4,7 C 87 % 1005,6 hPa 0,0 l/m 0,0 km/h W-NW -6,5 C -4,7 C 0,0 km/h
10.02.2010 09:00 -4,9 C 86 % 1005,8 hPa 0,0 l/m 0,0 km/h W-NW -6,9 C -4,9 C 0,0 km/h
10.02.2010 10:00 -3,1 C 82 % 1005,9 hPa 0,0 l/m 0,0 km/h W-NW -5,7 C -3,1 C 0,0 km/h
10.02.2010 11:00 -2,4 C 75 % 1006,1 hPa 0,0 l/m 0,0 km/h W-NW -6,2 C -2,4 C 0,0 km/h
10.02.2010 12:00 0,1 C 67 % 1005,8 hPa 0,0 l/m 0,0 km/h W-NW -5,3 C 0,1 C 0,0 km/h
10.02.2010 13:00 0,2 C 64 % 1005,5 hPa 0,0 l/m 0,0 km/h W-NW -5,8 C 0,2 C 0,0 km/h
10.02.2010 14:00 0,3 C 63 % 1005,3 hPa 0,0 l/m 0,0 km/h NW -5,9 C 0,3 C 0,0 km/h
10.02.2010 15:00 -2,6 C 68 % 1005,6 hPa 0,0 l/m 0,0 km/h NW -7,7 C -2,6 C 0,0 km/h
10.02.2010 16:00 -3,5 C 68 % 1006,1 hPa 0,0 l/m 0,0 km/h NW -8,5 C -3,5 C 0,0 km/h
10.02.2010 17:00 -5,3 C 72 % 1006,3 hPa 0,0 l/m 0,0 km/h NW -9,5 C -5,3 C 0,0 km/h
10.02.2010 18:00 -5,8 C 75 % 1006,5 hPa 0,0 l/m 0,0 km/h NW -9,5 C -5,8 C 0,0 km/h
10.02.2010 19:00 -6,1 C 79 % 1006,4 hPa 0,0 l/m 0,0 km/h NW -9,1 C -6,1 C 0,0 km/h
10.02.2010 20:00 -5,8 C 79 % 1006,4 hPa 0,0 l/m 0,0 km/h NW -8,8 C -5,8 C 0,0 km/h
10.02.2010 21:00 -6,2 C 81 % 1006,3 hPa 0,0 l/m 0,0 km/h NW -8,9 C -6,2 C 0,0 km/h
10.02.2010 22:00 -6,2 C 82 % 1005,8 hPa 0,0 l/m 0,0 km/h NW -8,8 C -6,2 C 0,0 km/h
10.02.2010 23:00 -6,4 C 83 % 1005,4 hPa 0,0 l/m 0,0 km/h NW -8,8 C -6,4 C 0,0 km/h
11.02.2010 00:00 -6,4 C 84 % 1005,0 hPa 0,0 l/m 0,0 km/h NW -8,6 C -6,4 C 0,0 km/h
11.02.2010 01:00 -6,1 C 84 % 1004,6 hPa 0,0 l/m 0,0 km/h NW -8,4 C -6,1 C 0,0 km/h
11.02.2010 02:00 -5,6 C 81 % 1004,5 hPa 0,0 l/m 0,0 km/h NW -8,3 C -5,6 C 0,0 km/h
11.02.2010 03:00 -5,9 C 83 % 1004,4 hPa 0,0 l/m 0,0 km/h NW -8,3 C -5,9 C 0,0 km/h
11.02.2010 04:00 -6,1 C 84 % 1003,9 hPa 0,0 l/m 0,0 km/h NW -8,4 C -6,1 C 0,0 km/h
11.02.2010 05:00 -6,5 C 87 % 1003,7 hPa 0,0 l/m 0,0 km/h NW -8,3 C -6,5 C 0,0 km/h
11.02.2010 06:00 -7,1 C 88 % 1003,2 hPa 0,0 l/m 0,0 km/h NW -8,7 C -7,1 C 0,0 km/h
11.02.2010 07:00 -7,9 C 89 % 1003,4 hPa 0,0 l/m 0,0 km/h NW -9,4 C -7,9 C 0,0 km/h
11.02.2010 08:00 -6,6 C 89 % 1003,5 hPa 0,0 l/m 0,0 km/h NW -8,1 C -6,6 C 0,0 km/h
11.02.2010 09:00 -3,8 C 84 % 1003,4 hPa 0,0 l/m 0,0 km/h NW -6,1 C -3,8 C 0,0 km/h
11.02.2010 10:00 -2,5 C 78 % 1003,4 hPa 0,0 l/m 0,0 km/h NW -5,8 C -2,5 C 0,0 km/h
11.02.2010 11:00 -1,7 C 74 % 1003,4 hPa 0,0 l/m 0,7 km/h N-NW -5,7 C -1,7 C 0,7 km/h
11.02.2010 12:00 -0,9 C 72 % 1002,9 hPa 0,0 l/m 0,0 km/h N-NO -5,3 C -0,9 C 0,0 km/h
11.02.2010 13:00 -1,3 C 75 % 1002,7 hPa 0,0 l/m 0,0 km/h N-NO -5,1 C -1,3 C 0,0 km/h
11.02.2010 14:00 -1,9 C 77 % 1002,7 hPa 0,0 l/m 2,2 km/h N-NO -5,4 C -1,9 C 2,2 km/h
11.02.2010 15:00 -2,5 C 78 % 1003,0 hPa 0,0 l/m 3,6 km/h N -5,8 C -2,5 C 3,6 km/h
11.02.2010 16:00 -3,4 C 83 % 1003,4 hPa 0,0 l/m 3,2 km/h N -5,9 C -3,4 C 3,2 km/h
11.02.2010 17:00 -3,8 C 86 % 1004,1 hPa 0,0 l/m 1,8 km/h N-NO -5,8 C -3,8 C 1,8 km/h
11.02.2010 18:00 -3,8 C 87 % 1004,4 hPa 0,0 l/m 0,0 km/h SO -5,6 C -3,8 C 0,0 km/h
11.02.2010 19:00 -4,4 C 88 % 1004,7 hPa 0,0 l/m 0,0 km/h S -6,1 C -4,4 C 0,0 km/h
11.02.2010 20:00 -4,2 C 89 % 1005,2 hPa 0,0 l/m 0,0 km/h S -5,7 C -4,2 C 0,0 km/h
11.02.2010 21:00 -4,1 C 90 % 1005,5 hPa 0,0 l/m 0,0 km/h S -5,5 C -4,1 C 0,0 km/h
11.02.2010 22:00 -4,4 C 91 % 1005,7 hPa 0,0 l/m 0,0 km/h S -5,6 C -4,4 C 0,0 km/h
11.02.2010 23:00 -4,4 C 91 % 1006,1 hPa 0,0 l/m 0,0 km/h N-NO -5,6 C -4,4 C 0,0 km/h
12.02.2010 00:00 -3,4 C 91 % 1006,4 hPa 0,0 l/m 0,0 km/h N-NO -4,7 C -3,4 C 0,0 km/h
12.02.2010 01:00 -3,4 C 90 % 1006,6 hPa 0,0 l/m 0,0 km/h NO -4,8 C -3,4 C 0,0 km/h
12.02.2010 02:00 -3,6 C 91 % 1007,0 hPa 0,0 l/m 0,0 km/h S-SO -4,8 C -3,6 C 0,0 km/h
12.02.2010 03:00 -4,2 C 90 % 1007,2 hPa 0,0 l/m 0,0 km/h NO -5,6 C -4,2 C 0,0 km/h
12.02.2010 04:00 -3,9 C 90 % 1007,7 hPa 0,0 l/m 0,0 km/h N-NO -5,3 C -3,9 C 0,0 km/h
12.02.2010 05:00 -3,6 C 83 % 1008,0 hPa 0,0 l/m 0,0 km/h N -6,1 C -3,6 C 0,0 km/h
12.02.2010 06:00 -4,1 C 85 % 1008,9 hPa 0,0 l/m 0,0 km/h N-NO -6,2 C -4,1 C 0,0 km/h
12.02.2010 07:00 -4,2 C 84 % 1009,5 hPa 0,0 l/m 1,1 km/h N-NO -6,5 C -4,2 C 1,1 km/h
12.02.2010 08:00 -3,6 C 84 % 1010,1 hPa 0,0 l/m 0,0 km/h N -5,9 C -3,6 C 0,0 km/h
12.02.2010 09:00 -1,7 C 79 % 1010,4 hPa 0,0 l/m 4,0 km/h N-NO -4,8 C -1,7 C 4,0 km/h
12.02.2010 10:00 0,9 C 68 % 1010,8 hPa 0,0 l/m 1,1 km/h O -4,3 C 0,9 C 1,1 km/h
12.02.2010 11:00 5,1 C 57 % 1010,9 hPa 0,0 l/m 0,0 km/h W -2,7 C 5,1 C 0,0 km/h
12.02.2010 12:00 3,9 C 59 % 1010,8 hPa 0,0 l/m 0,0 km/h W -3,4 C 3,9 C 0,0 km/h
12.02.2010 13:00 1,5 C 67 % 1010,8 hPa 0,0 l/m 0,4 km/h W-NW -3,9 C 1,5 C 0,4 km/h
12.02.2010 14:00 0,8 C 71 % 1010,9 hPa 0,0 l/m 0,0 km/h W -3,8 C 0,8 C 0,0 km/h
12.02.2010 15:00 1,1 C 73 % 1011,3 hPa 0,4 l/m 0,0 km/h W -3,2 C 1,1 C 0,0 km/h
12.02.2010 16:00 -0,1 C 77 % 1011,9 hPa 0,0 l/m 0,0 km/h W -3,6 C -0,1 C 0,0 km/h
12.02.2010 17:00 -1,6 C 84 % 1012,3 hPa 0,0 l/m 0,0 km/h W -3,9 C -1,6 C 0,0 km/h
12.02.2010 18:00 -2,6 C 87 % 1012,4 hPa 0,0 l/m 0,0 km/h W-SW -4,5 C -2,6 C 0,0 km/h
12.02.2010 19:00 -3,1 C 89 % 1012,9 hPa 0,0 l/m 0,0 km/h W-SW -4,6 C -3,1 C 0,0 km/h
12.02.2010 20:00 -2,7 C 90 % 1012,9 hPa 0,0 l/m 0,0 km/h W-SW -4,1 C -2,7 C 0,0 km/h
12.02.2010 21:00 -2,8 C 90 % 1013,2 hPa 0,0 l/m 0,0 km/h S -4,2 C -2,8 C 0,0 km/h
12.02.2010 22:00 -3,0 C 90 % 1013,1 hPa 0,0 l/m 0,0 km/h S -4,4 C -3,0 C 0,0 km/h
12.02.2010 23:00 -3,0 C 90 % 1013,1 hPa 0,0 l/m 0,0 km/h S -4,4 C -3,0 C 0,0 km/h
13.02.2010 00:00 -3,3 C 90 % 1013,1 hPa 0,0 l/m 0,0 km/h S -4,7 C -3,3 C 0,0 km/h
13.02.2010 01:00 -3,5 C 90 % 1012,8 hPa 0,0 l/m 0,0 km/h S-SO -4,9 C -3,5 C 0,0 km/h
13.02.2010 02:00 -3,7 C 91 % 1012,8 hPa 0,0 l/m 0,0 km/h SO -4,9 C -3,7 C 0,0 km/h
13.02.2010 03:00 -3,2 C 92 % 1012,3 hPa 0,0 l/m 0,0 km/h SO -4,3 C -3,2 C 0,0 km/h
13.02.2010 04:00 -3,4 C 92 % 1012,4 hPa 0,0 l/m 0,0 km/h SO -4,5 C -3,4 C 0,0 km/h
13.02.2010 05:00 -3,7 C 92 % 1012,4 hPa 0,0 l/m 0,0 km/h W -4,8 C -3,7 C 0,0 km/h
13.02.2010 06:00 -3,3 C 92 % 1012,4 hPa 0,0 l/m 0,0 km/h W-NW -4,4 C -3,3 C 0,0 km/h
13.02.2010 07:00 -3,3 C 92 % 1012,8 hPa 0,0 l/m 0,0 km/h W -4,4 C -3,3 C 0,0 km/h
13.02.2010 08:00 -2,2 C 91 % 1012,8 hPa 0,0 l/m 0,0 km/h W-NW -3,5 C -2,2 C 0,0 km/h
13.02.2010 09:00 -0,9 C 87 % 1012,9 hPa 0,0 l/m 0,0 km/h W-NW -2,8 C -0,9 C 0,0 km/h
13.02.2010 10:00 -0,4 C 83 % 1013,0 hPa 0,0 l/m 0,0 km/h W -2,9 C -0,4 C 0,0 km/h
13.02.2010 11:00 0,4 C 80 % 1012,6 hPa 0,0 l/m 0,0 km/h W -2,6 C 0,4 C 0,0 km/h
13.02.2010 12:00 0,8 C 77 % 1012,0 hPa 0,0 l/m 0,0 km/h N -2,8 C 0,8 C 0,0 km/h
13.02.2010 13:00 0,6 C 78 % 1011,9 hPa 0,0 l/m 0,0 km/h W-NW -2,8 C 0,6 C 0,0 km/h
13.02.2010 14:00 0,2 C 77 % 1011,5 hPa 0,0 l/m 0,0 km/h N-NW -3,3 C 0,2 C 0,0 km/h
13.02.2010 15:00 -0,7 C 80 % 1011,4 hPa 0,0 l/m 0,0 km/h W-NW -3,7 C -0,7 C 0,0 km/h
13.02.2010 16:00 -1,7 C 82 % 1011,7 hPa 0,0 l/m 0,0 km/h N -4,4 C -1,7 C 0,0 km/h
13.02.2010 17:00 -2,2 C 85 % 1011,9 hPa 0,0 l/m 0,0 km/h O-NO -4,4 C -2,2 C 0,0 km/h
13.02.2010 18:00 -2,7 C 86 % 1012,0 hPa 0,0 l/m 0,0 km/h SO -4,7 C -2,7 C 0,0 km/h
13.02.2010 19:00 -2,9 C 87 % 1012,3 hPa 0,0 l/m 0,0 km/h NW -4,8 C -2,9 C 0,0 km/h
13.02.2010 20:00 -2,9 C 88 % 1012,3 hPa 0,0 l/m 0,4 km/h W -4,6 C -2,9 C 0,4 km/h
13.02.2010 21:00 -3,2 C 89 % 1012,3 hPa 0,0 l/m 0,0 km/h W -4,7 C -3,2 C 0,0 km/h
13.02.2010 22:00 -3,4 C 89 % 1012,1 hPa 0,0 l/m 0,0 km/h W-SW -4,9 C -3,4 C 0,0 km/h
13.02.2010 23:00 -3,6 C 90 % 1012,3 hPa 0,0 l/m 0,0 km/h W-SW -5,0 C -3,6 C 0,0 km/h
14.02.2010 00:00 -3,6 C 90 % 1012,3 hPa 0,0 l/m 0,0 km/h W-SW -5,0 C -3,6 C 0,0 km/h
14.02.2010 01:00 -3,7 C 90 % 1012,1 hPa 0,0 l/m 0,0 km/h W-SW -5,1 C -3,7 C 0,0 km/h
14.02.2010 02:00 -3,7 C 90 % 1011,8 hPa 0,0 l/m 0,0 km/h W-SW -5,1 C -3,7 C 0,0 km/h
14.02.2010 03:00 -3,6 C 90 % 1011,5 hPa 0,0 l/m 0,0 km/h W-SW -5,0 C -3,6 C 0,0 km/h
14.02.2010 04:00 -3,6 C 90 % 1011,5 hPa 0,0 l/m 0,0 km/h W -5,0 C -3,6 C 0,0 km/h
14.02.2010 05:00 -3,6 C 89 % 1011,3 hPa 0,0 l/m 0,0 km/h W -5,1 C -3,6 C 0,0 km/h
14.02.2010 06:00 -3,6 C 90 % 1011,4 hPa 0,0 l/m 0,0 km/h W -5,0 C -3,6 C 0,0 km/h
14.02.2010 07:00 -3,6 C 90 % 1011,7 hPa 0,0 l/m 0,0 km/h W -5,0 C -3,6 C 0,0 km/h
14.02.2010 08:00 -3,2 C 90 % 1011,6 hPa 0,0 l/m 0,0 km/h W -4,6 C -3,2 C 0,0 km/h
14.02.2010 09:00 -2,7 C 89 % 1011,7 hPa 0,0 l/m 0,0 km/h W -4,3 C -2,7 C 0,0 km/h
14.02.2010 10:00 -0,6 C 83 % 1011,8 hPa 0,0 l/m 0,0 km/h S-SO -3,1 C -0,6 C 0,0 km/h
14.02.2010 11:00 2,8 C 73 % 1011,8 hPa 0,0 l/m 0,0 km/h S-SW -1,5 C 2,8 C 0,0 km/h
14.02.2010 12:00 4,1 C 65 % 1011,2 hPa 0,0 l/m 0,0 km/h SO -1,9 C 4,1 C 0,0 km/h
14.02.2010 13:00 2,7 C 63 % 1010,8 hPa 0,0 l/m 0,0 km/h S-SW -3,6 C 2,7 C 0,0 km/h
14.02.2010 14:00 0,5 C 70 % 1010,6 hPa 0,0 l/m 0,0 km/h W -4,3 C 0,5 C 0,0 km/h
14.02.2010 15:00 0,1 C 70 % 1010,5 hPa 0,0 l/m 0,0 km/h NW -4,7 C 0,1 C 0,0 km/h
14.02.2010 16:00 -1,1 C 71 % 1010,4 hPa 0,0 l/m 0,0 km/h NW -5,7 C -1,1 C 0,0 km/h
14.02.2010 17:00 -2,1 C 76 % 1010,6 hPa 0,0 l/m 0,0 km/h N -5,7 C -2,1 C 0,0 km/h
14.02.2010 18:00 -2,6 C 79 % 1010,4 hPa 0,0 l/m 0,0 km/h N -5,7 C -2,6 C 0,0 km/h
14.02.2010 19:00 -3,1 C 82 % 1010,5 hPa 0,0 l/m 0,0 km/h SO -5,7 C -3,1 C 0,0 km/h
14.02.2010 20:00 -3,1 C 84 % 1010,6 hPa 0,0 l/m 0,0 km/h SO -5,4 C -3,1 C 0,0 km/h
14.02.2010 21:00 -3,2 C 85 % 1010,4 hPa 0,0 l/m 0,0 km/h SO -5,4 C -3,2 C 0,0 km/h
14.02.2010 22:00 -3,3 C 85 % 1010,3 hPa 0,0 l/m 0,0 km/h SO -5,5 C -3,3 C 0,0 km/h
14.02.2010 23:00 -3,3 C 87 % 1009,9 hPa 0,0 l/m 0,0 km/h SO -5,1 C -3,3 C 0,0 km/h
Min-Datum _ 11.02.10 12.02.10 09.02.10 - 08.02.10 - 10.02.10 11.02.10 08.02.10
_ Min-Zeit 07:53 11:53 15:53 - 00:53 - 17:53 07:53 00:53
Minimum _ -7,9 C 57 % 999,6 hPa - 0,0 km/h - -9,5 C -7,9 C 0,0 km/h
Max-Datum _ 08.02.10 08.02.10 12.02.10 12.02.10 09.02.10 - 08.02.10 08.02.10 09.02.10
_ Max-Zeit 14:53 08:53 21:53 15:53 13:53 - 14:53 14:53 13:53
Maximum _ 8,1 C 94 % 1013,2 hPa 0,4 l/m 4,0 km/h
W
- 2,3 C 8,1 C 4,0 km/h
W
Durchschnitt _ -2,1 C 84 % 1007,1 hPa #0,4 l/m 0,2 km/h W-NW -4,5 C -2,1 C 0,2 km/h